createdAt,value
2018-06-07T00:00:30.814Z,0.00
2018-06-07T00:01:30.808Z,0.00
2018-06-07T00:02:30.801Z,0.00
2018-06-07T00:03:30.828Z,0.00
2018-06-07T00:04:30.796Z,0.00
2018-06-07T00:05:30.795Z,0.00
2018-06-07T00:06:30.796Z,0.00
2018-06-07T00:07:30.788Z,0.00
2018-06-07T00:08:30.785Z,0.00
2018-06-07T00:09:30.784Z,0.00
2018-06-07T00:10:30.784Z,0.00
2018-06-07T00:11:30.776Z,0.00
2018-06-07T00:12:30.775Z,0.00
2018-06-07T00:13:30.774Z,0.00
2018-06-07T00:14:30.767Z,0.00
2018-06-07T00:15:30.765Z,0.00
2018-06-07T00:16:30.764Z,0.00
2018-06-07T00:17:30.759Z,0.00
2018-06-07T00:18:30.758Z,0.00
2018-06-07T00:19:30.756Z,0.00
2018-06-07T00:20:30.751Z,0.00
2018-06-07T00:21:30.748Z,0.00
2018-06-07T00:22:30.745Z,0.00
2018-06-07T00:23:30.742Z,0.00
2018-06-07T00:24:30.741Z,0.00
2018-06-07T00:25:30.738Z,0.00
2018-06-07T00:26:30.734Z,0.00
2018-06-07T00:27:30.730Z,0.00
2018-06-07T00:28:30.740Z,0.00
2018-06-07T00:29:30.726Z,0.00
2018-06-07T00:30:30.726Z,0.00
2018-06-07T00:31:30.722Z,0.00
2018-06-07T00:32:30.716Z,0.00
2018-06-07T00:33:30.715Z,0.00
2018-06-07T00:34:30.712Z,0.00
2018-06-07T00:35:30.708Z,0.00
2018-06-07T00:36:30.705Z,0.00
2018-06-07T00:37:30.707Z,0.00
2018-06-07T00:38:30.701Z,0.00
2018-06-07T00:39:30.696Z,0.00
2018-06-07T00:40:30.700Z,0.00
2018-06-07T00:41:30.694Z,0.00
2018-06-07T00:42:30.688Z,0.00
2018-06-07T00:43:30.686Z,0.00
2018-06-07T00:44:30.686Z,0.00
2018-06-07T00:45:30.681Z,0.00
2018-06-07T00:46:30.677Z,0.00
2018-06-07T00:47:30.675Z,0.00
2018-06-07T00:48:30.672Z,0.00
2018-06-07T00:49:30.669Z,0.00
2018-06-07T00:50:30.665Z,0.00
2018-06-07T00:51:30.664Z,0.00
2018-06-07T00:52:30.661Z,0.00
2018-06-07T00:53:30.660Z,0.00
2018-06-07T00:54:30.654Z,0.00
2018-06-07T00:55:30.658Z,0.00
2018-06-07T00:56:30.650Z,0.00
2018-06-07T00:57:30.646Z,0.00
2018-06-07T00:58:30.643Z,0.00
2018-06-07T00:59:30.640Z,0.00
2018-06-07T01:00:30.636Z,0.00
2018-06-07T01:01:30.634Z,0.00
2018-06-07T01:02:30.631Z,0.00
2018-06-07T01:03:30.628Z,0.00
2018-06-07T01:04:30.626Z,0.00
2018-06-07T01:05:30.624Z,0.00
2018-06-07T01:06:30.618Z,0.00
2018-06-07T01:07:30.616Z,0.00
2018-06-07T01:08:30.613Z,0.00
2018-06-07T01:09:30.647Z,0.00
2018-06-07T01:10:30.607Z,0.00
2018-06-07T01:11:30.604Z,0.00
2018-06-07T01:12:30.601Z,0.00
2018-06-07T01:13:30.598Z,0.00
2018-06-07T01:14:30.801Z,0.00
2018-06-07T01:15:30.592Z,0.00
2018-06-07T01:16:30.589Z,0.00
2018-06-07T01:17:30.806Z,0.00
2018-06-07T01:18:30.584Z,0.00
2018-06-07T01:19:30.580Z,0.00
2018-06-07T01:20:30.578Z,0.00
2018-06-07T01:21:30.575Z,0.00
2018-06-07T01:22:30.571Z,0.00
2018-06-07T01:23:30.568Z,0.00
2018-06-07T01:24:30.570Z,0.00
2018-06-07T01:25:30.562Z,0.00
2018-06-07T01:26:30.559Z,0.00
2018-06-07T01:27:30.555Z,0.00
2018-06-07T01:28:30.552Z,0.00
2018-06-07T01:29:30.549Z,0.00
2018-06-07T01:30:30.544Z,0.00
2018-06-07T01:31:30.541Z,0.00
2018-06-07T01:32:30.538Z,0.00
2018-06-07T01:33:30.537Z,0.00
2018-06-07T01:34:30.532Z,0.00
2018-06-07T01:35:30.528Z,0.00
2018-06-07T01:36:30.534Z,0.00
2018-06-07T01:37:30.524Z,0.00
2018-06-07T01:38:30.519Z,0.00
2018-06-07T01:39:30.515Z,0.00
2018-06-07T01:40:30.512Z,0.00
2018-06-07T01:41:30.509Z,0.00
2018-06-07T01:42:30.707Z,0.00
2018-06-07T01:43:30.502Z,0.00
2018-06-07T01:44:30.501Z,0.00
2018-06-07T01:45:30.496Z,0.00
2018-06-07T01:46:30.492Z,0.00
2018-06-07T01:47:30.489Z,0.00
2018-06-07T01:48:30.486Z,0.00
2018-06-07T01:49:30.483Z,0.00
2018-06-07T01:50:30.479Z,0.00
2018-06-07T01:51:30.476Z,0.00
2018-06-07T01:52:30.473Z,0.00
2018-06-07T01:53:30.469Z,0.00
2018-06-07T01:54:30.466Z,0.00
2018-06-07T01:55:30.467Z,0.00
2018-06-07T01:56:30.462Z,0.00
2018-06-07T01:57:30.457Z,0.00
2018-06-07T01:58:30.452Z,0.00
2018-06-07T01:59:30.450Z,0.00
2018-06-07T02:00:30.447Z,0.00
2018-06-07T02:01:30.443Z,0.00
2018-06-07T02:02:30.439Z,0.00
2018-06-07T02:03:30.436Z,0.00
2018-06-07T02:04:30.433Z,0.00
2018-06-07T02:05:30.433Z,0.00
2018-06-07T02:06:30.426Z,0.00
2018-06-07T02:07:30.423Z,0.00
2018-06-07T02:08:30.422Z,0.00
2018-06-07T02:09:30.423Z,0.00
2018-06-07T02:10:30.419Z,0.00
2018-06-07T02:11:30.410Z,0.00
2018-06-07T02:12:30.406Z,0.00
2018-06-07T02:13:30.407Z,0.00
2018-06-07T02:14:30.400Z,0.00
2018-06-07T02:15:30.398Z,0.00
2018-06-07T02:16:30.395Z,0.00
2018-06-07T02:17:30.391Z,0.00
2018-06-07T02:18:30.386Z,0.00
2018-06-07T02:19:30.590Z,0.00
2018-06-07T02:20:30.380Z,0.00
2018-06-07T02:21:30.376Z,0.00
2018-06-07T02:22:30.372Z,0.00
2018-06-07T02:23:30.369Z,0.00
2018-06-07T02:24:30.365Z,0.00
2018-06-07T02:25:30.362Z,0.00
2018-06-07T02:26:30.358Z,0.00
2018-06-07T02:27:30.357Z,0.00
2018-06-07T02:28:30.351Z,0.00
2018-06-07T02:29:30.348Z,0.00
2018-06-07T02:30:30.344Z,0.00
2018-06-07T02:31:30.340Z,0.00
2018-06-07T02:32:30.337Z,0.00
2018-06-07T02:33:30.334Z,0.00
2018-06-07T02:34:30.330Z,0.00
2018-06-07T02:35:30.327Z,0.00
2018-06-07T02:36:30.322Z,0.00
2018-06-07T02:37:30.319Z,0.00
2018-06-07T02:38:30.314Z,0.00
2018-06-07T02:39:30.312Z,0.00
2018-06-07T02:40:30.308Z,4.00
2018-06-07T02:41:30.307Z,4.00
2018-06-07T02:42:30.300Z,0.00
2018-06-07T02:43:30.297Z,0.00
2018-06-07T02:44:30.293Z,0.00
2018-06-07T02:45:30.290Z,4.00
2018-06-07T02:46:30.286Z,4.00
2018-06-07T02:47:30.282Z,0.00
2018-06-07T02:48:30.279Z,4.00
2018-06-07T02:49:30.275Z,4.00
2018-06-07T02:50:30.274Z,4.00
2018-06-07T02:51:30.267Z,4.00
2018-06-07T02:52:30.264Z,4.00
2018-06-07T02:53:30.260Z,4.00
2018-06-07T02:54:30.256Z,8.00
2018-06-07T02:55:30.253Z,8.00
2018-06-07T02:56:30.249Z,8.00
2018-06-07T02:57:30.246Z,8.00
2018-06-07T02:58:30.242Z,8.00
2018-06-07T02:59:30.237Z,12.00
2018-06-07T03:01:30.291Z,12.00
2018-06-07T03:02:30.229Z,16.00
2018-06-07T03:03:30.222Z,20.00
2018-06-07T03:04:30.218Z,20.00
2018-06-07T03:05:30.214Z,20.00
2018-06-07T03:06:30.210Z,24.00
2018-06-07T03:07:30.211Z,28.00
2018-06-07T03:08:30.202Z,32.00
2018-06-07T03:09:30.198Z,36.00
2018-06-07T03:10:30.196Z,40.00
2018-06-07T03:11:30.190Z,48.00
2018-06-07T03:12:30.186Z,52.00
2018-06-07T03:13:30.183Z,60.00
2018-06-07T03:14:30.177Z,64.00
2018-06-07T03:15:30.175Z,68.00
2018-06-07T03:16:30.176Z,76.00
2018-06-07T03:17:30.370Z,84.00
2018-06-07T03:18:30.166Z,96.00
2018-06-07T03:19:30.159Z,104.00
2018-06-07T03:20:30.159Z,108.00
2018-06-07T03:21:30.152Z,124.00
2018-06-07T03:22:30.151Z,132.00
2018-06-07T03:23:30.144Z,140.00
2018-06-07T03:24:30.143Z,152.00
2018-06-07T03:25:30.137Z,164.00
2018-06-07T03:26:30.133Z,176.00
2018-06-07T03:27:30.129Z,192.00
2018-06-07T03:28:30.125Z,204.00
2018-06-07T03:29:30.122Z,220.00
2018-06-07T03:30:30.119Z,236.00
2018-06-07T03:31:30.154Z,256.00
2018-06-07T03:32:30.110Z,272.00
2018-06-07T03:33:30.111Z,296.00
2018-06-07T03:34:30.102Z,312.00
2018-06-07T03:35:30.099Z,336.00
2018-06-07T03:36:30.095Z,360.00
2018-06-07T03:37:30.096Z,384.00
2018-06-07T03:38:30.087Z,412.00
2018-06-07T03:39:30.083Z,444.00
2018-06-07T03:40:30.083Z,472.00
2018-06-07T03:41:30.281Z,508.00
2018-06-07T03:42:30.071Z,536.00
2018-06-07T03:43:30.071Z,556.00
2018-06-07T03:44:30.068Z,572.00
2018-06-07T03:45:30.062Z,584.00
2018-06-07T03:46:30.056Z,592.00
2018-06-07T03:47:30.053Z,608.00
2018-06-07T03:48:30.051Z,620.00
2018-06-07T03:49:30.045Z,644.00
2018-06-07T03:50:30.243Z,664.00
2018-06-07T03:51:30.042Z,688.00
2018-06-07T03:52:30.034Z,716.00
2018-06-07T03:53:30.036Z,744.00
2018-06-07T03:54:30.231Z,776.00
2018-06-07T03:55:30.023Z,808.00
2018-06-07T03:56:30.021Z,844.00
2018-06-07T03:57:30.016Z,880.00
2018-06-07T03:58:30.013Z,916.00
2018-06-07T03:59:30.008Z,960.00
2018-06-07T04:00:30.205Z,1012.00
2018-06-07T04:01:30.000Z,1064.00
2018-06-07T04:02:29.996Z,1112.00
2018-06-07T04:03:29.993Z,1156.00
2018-06-07T04:04:29.992Z,1196.00
2018-06-07T04:06:29.980Z,1260.00
2018-06-07T04:07:29.981Z,1284.00
2018-06-07T04:08:29.974Z,1312.00
2018-06-07T04:09:29.970Z,1344.00
2018-06-07T04:10:29.966Z,1384.00
2018-06-07T04:11:29.963Z,1416.00
2018-06-07T04:12:29.962Z,1444.00
2018-06-07T04:13:29.955Z,1476.00
2018-06-07T04:14:29.953Z,1504.00
2018-06-07T04:15:29.953Z,1544.00
2018-06-07T04:16:30.147Z,1584.00
2018-06-07T04:17:29.949Z,1628.00
2018-06-07T04:18:29.937Z,1676.00
2018-06-07T04:19:29.937Z,1720.00
2018-06-07T04:20:29.934Z,1780.00
2018-06-07T04:21:29.928Z,1836.00
2018-06-07T04:22:29.923Z,1892.00
2018-06-07T04:23:29.922Z,1948.00
2018-06-07T04:24:29.917Z,1996.00
2018-06-07T04:25:29.914Z,2048.00
2018-06-07T04:26:29.910Z,2080.00
2018-06-07T04:27:29.913Z,2108.00
2018-06-07T04:28:29.903Z,2120.00
2018-06-07T04:29:29.900Z,2136.00
2018-06-07T04:30:29.896Z,2168.00
2018-06-07T04:31:29.893Z,2216.00
2018-06-07T04:32:29.890Z,2284.00
2018-06-07T04:33:29.887Z,2364.00
2018-06-07T04:34:30.088Z,2448.00
2018-06-07T04:35:29.882Z,2540.00
2018-06-07T04:36:29.879Z,2632.00
2018-06-07T04:37:29.874Z,2728.00
2018-06-07T04:38:29.868Z,2832.00
2018-06-07T04:39:29.865Z,2940.00
2018-06-07T04:40:29.862Z,3052.00
2018-06-07T04:41:29.862Z,3144.00
2018-06-07T04:42:29.859Z,3224.00
2018-06-07T04:43:29.853Z,3272.00
2018-06-07T04:44:29.856Z,3316.00
2018-06-07T04:45:29.845Z,3352.00
2018-06-07T04:46:29.840Z,3392.00
2018-06-07T04:47:29.837Z,3448.00
2018-06-07T04:48:29.836Z,3504.00
2018-06-07T04:49:29.834Z,3560.00
2018-06-07T04:50:29.828Z,3624.00
2018-06-07T04:51:29.827Z,3692.00
2018-06-07T04:52:29.826Z,3748.00
2018-06-07T04:53:29.823Z,3792.00
2018-06-07T04:54:29.813Z,3824.00
2018-06-07T04:55:29.810Z,3852.00
2018-06-07T04:56:29.807Z,3880.00
2018-06-07T04:57:29.804Z,3916.00
2018-06-07T04:58:29.800Z,3980.00
2018-06-07T04:59:29.797Z,4052.00
2018-06-07T05:00:29.800Z,4140.00
2018-06-07T05:01:29.791Z,4244.00
2018-06-07T05:02:29.789Z,4368.00
2018-06-07T05:03:29.784Z,4472.00
2018-06-07T05:04:29.784Z,4556.00
2018-06-07T05:05:29.780Z,4648.00
2018-06-07T05:06:29.786Z,4760.00
2018-06-07T05:07:29.771Z,4880.00
2018-06-07T05:08:29.774Z,5016.00
2018-06-07T05:09:29.767Z,5160.00
2018-06-07T05:10:29.764Z,5292.00
2018-06-07T05:11:29.756Z,5376.00
2018-06-07T05:12:29.753Z,5452.00
2018-06-07T05:13:29.750Z,5480.00
2018-06-07T05:14:29.750Z,5524.00
2018-06-07T05:15:29.746Z,5592.00
2018-06-07T05:16:29.744Z,5676.00
2018-06-07T05:17:29.945Z,5704.00
2018-06-07T05:18:29.732Z,5668.00
2018-06-07T05:19:29.729Z,5564.00
2018-06-07T05:20:29.727Z,5424.00
2018-06-07T05:21:29.723Z,5220.00
2018-06-07T05:22:29.718Z,4976.00
2018-06-07T05:23:29.715Z,4656.00
2018-06-07T05:24:29.713Z,4324.00
2018-06-07T05:25:29.725Z,4124.00
2018-06-07T05:26:29.712Z,4120.00
2018-06-07T05:27:29.709Z,4248.00
2018-06-07T05:28:29.700Z,4452.00
2018-06-07T05:29:29.696Z,4628.00
2018-06-07T05:30:29.693Z,4784.00
2018-06-07T05:31:29.691Z,4948.00
2018-06-07T05:32:29.687Z,5100.00
2018-06-07T05:33:29.683Z,5248.00
2018-06-07T05:34:29.687Z,5404.00
2018-06-07T05:35:29.680Z,5524.00
2018-06-07T05:36:29.674Z,5624.00
2018-06-07T05:37:29.672Z,5692.00
2018-06-07T05:38:29.670Z,5808.00
2018-06-07T05:39:29.666Z,5992.00
2018-06-07T05:40:29.663Z,6180.00
2018-06-07T05:41:29.658Z,6344.00
2018-06-07T05:42:29.655Z,6424.00
2018-06-07T05:43:29.652Z,6476.00
2018-06-07T05:44:29.669Z,6520.00
2018-06-07T05:45:29.649Z,6540.00
2018-06-07T05:46:29.648Z,6536.00
2018-06-07T05:47:29.641Z,6496.00
2018-06-07T05:48:29.640Z,6384.00
2018-06-07T05:49:29.636Z,6228.00
2018-06-07T05:50:29.633Z,6180.00
2018-06-07T05:51:29.833Z,6208.00
2018-06-07T05:52:29.632Z,6224.00
2018-06-07T05:53:29.628Z,6236.00
2018-06-07T05:54:29.624Z,6320.00
2018-06-07T05:55:29.624Z,6412.00
2018-06-07T05:56:29.618Z,6640.00
2018-06-07T05:57:29.622Z,6952.00
2018-06-07T05:58:29.613Z,7400.00
2018-06-07T05:59:29.626Z,7924.00
2018-06-07T06:00:29.669Z,8452.00
2018-06-07T06:01:29.608Z,8900.00
2018-06-07T06:02:29.614Z,9248.00
2018-06-07T06:03:29.605Z,9644.00
2018-06-07T06:04:29.625Z,10476.00
2018-06-07T06:05:29.649Z,11136.00
2018-06-07T06:06:29.798Z,11588.00
2018-06-07T06:07:29.595Z,11736.00
2018-06-07T06:08:29.595Z,11740.00
2018-06-07T06:09:29.799Z,11824.00
2018-06-07T06:10:29.589Z,11984.00
2018-06-07T06:11:29.589Z,12144.00
2018-06-07T06:12:29.587Z,12200.00
2018-06-07T06:13:29.588Z,12104.00
2018-06-07T06:14:29.583Z,11976.00
2018-06-07T06:15:29.582Z,11952.00
2018-06-07T06:16:29.585Z,12084.00
2018-06-07T06:17:29.581Z,12392.00
2018-06-07T06:18:29.577Z,12732.00
2018-06-07T06:19:29.577Z,13224.00
2018-06-07T06:20:29.576Z,14264.00
2018-06-07T06:21:29.578Z,14936.00
2018-06-07T06:22:29.574Z,15052.00
2018-06-07T06:23:29.578Z,15744.00
2018-06-07T06:24:29.774Z,16584.00
2018-06-07T06:25:29.573Z,17568.00
2018-06-07T06:26:29.570Z,18368.00
2018-06-07T06:27:29.570Z,18528.00
2018-06-07T06:28:29.570Z,18304.00
2018-06-07T06:29:29.575Z,17696.00
2018-06-07T06:30:29.568Z,17248.00
2018-06-07T06:31:29.571Z,17216.00
2018-06-07T06:32:29.573Z,17440.00
2018-06-07T06:33:29.589Z,17440.00
2018-06-07T06:34:29.570Z,17120.00
2018-06-07T06:35:29.568Z,17024.00
2018-06-07T06:36:29.568Z,17568.00
2018-06-07T06:38:29.568Z,16960.00
2018-06-07T06:39:29.568Z,16384.00
2018-06-07T06:40:29.568Z,15652.00
2018-06-07T06:41:29.569Z,15044.00
2018-06-07T06:42:29.574Z,14880.00
2018-06-07T06:43:29.569Z,15016.00
2018-06-07T06:44:29.569Z,15328.00
2018-06-07T06:45:29.570Z,15976.00
2018-06-07T06:46:29.570Z,16736.00
2018-06-07T06:47:29.570Z,17120.00
2018-06-07T06:48:29.570Z,16344.00
2018-06-07T06:49:29.696Z,15024.00
2018-06-07T06:50:29.571Z,13396.00
2018-06-07T06:51:29.571Z,11420.00
2018-06-07T06:52:29.574Z,9896.00
2018-06-07T06:53:29.576Z,8820.00
2018-06-07T06:54:29.575Z,8332.00
2018-06-07T06:55:29.573Z,8092.00
2018-06-07T06:56:29.577Z,7948.00
2018-06-07T06:57:29.576Z,7884.00
2018-06-07T06:58:29.576Z,7916.00
2018-06-07T06:59:29.582Z,8032.00
2018-06-07T07:00:30.776Z,8256.00
2018-06-07T07:01:29.573Z,8528.00
2018-06-07T07:02:29.572Z,8840.00
2018-06-07T07:03:29.572Z,9228.00
2018-06-07T07:04:29.574Z,9740.00
2018-06-07T07:05:29.577Z,10420.00
2018-06-07T07:06:29.571Z,11424.00
2018-06-07T07:07:29.576Z,12852.00
2018-06-07T07:08:29.571Z,14116.00
2018-06-07T07:09:29.571Z,15756.00
2018-06-07T07:10:29.570Z,18112.00
2018-06-07T07:11:29.570Z,22432.00
2018-06-07T07:12:29.570Z,29824.00
2018-06-07T07:13:29.570Z,35744.00
2018-06-07T07:14:29.570Z,36192.00
2018-06-07T07:15:29.777Z,40448.00
2018-06-07T07:16:29.576Z,40192.00
2018-06-07T07:17:29.577Z,41568.00
2018-06-07T07:18:29.572Z,42848.00
2018-06-07T07:19:29.579Z,43136.00
2018-06-07T07:20:29.576Z,42368.00
2018-06-07T07:21:29.578Z,40224.00
2018-06-07T07:22:29.580Z,43328.00
2018-06-07T07:23:29.581Z,41600.00
2018-06-07T07:24:29.590Z,35872.00
2018-06-07T07:25:29.589Z,36928.00
2018-06-07T07:26:29.594Z,39744.00
2018-06-07T07:27:29.595Z,40992.00
2018-06-07T07:28:29.607Z,34208.00
2018-06-07T07:29:29.610Z,34784.00
2018-06-07T07:30:29.608Z,23488.00
2018-06-07T07:31:29.613Z,22080.00
2018-06-07T07:32:29.619Z,22016.00
2018-06-07T07:33:29.623Z,32704.00
2018-06-07T07:34:29.681Z,39104.00
2018-06-07T07:35:29.631Z,40192.00
2018-06-07T07:36:29.641Z,22880.00
2018-06-07T07:37:29.642Z,20448.00
2018-06-07T07:38:29.648Z,20640.00
2018-06-07T07:39:29.651Z,22400.00
2018-06-07T07:40:29.656Z,33760.00
2018-06-07T07:41:29.660Z,38240.00
2018-06-07T07:42:29.668Z,42784.00
2018-06-07T07:43:29.674Z,44960.00
2018-06-07T07:44:29.676Z,44352.00
2018-06-07T07:45:29.682Z,46720.00
2018-06-07T07:46:29.686Z,46208.00
2018-06-07T07:47:29.698Z,42752.00
2018-06-07T07:48:29.700Z,39520.00
2018-06-07T07:49:29.710Z,25344.00
2018-06-07T07:50:29.713Z,25472.00
2018-06-07T07:51:29.725Z,29728.00
2018-06-07T07:52:29.727Z,35456.00
2018-06-07T07:53:29.735Z,37728.00
2018-06-07T07:54:29.744Z,30176.00
2018-06-07T07:55:29.754Z,32864.00
2018-06-07T07:56:29.756Z,52064.00
2018-06-07T07:57:29.762Z,50144.00
2018-06-07T07:58:29.769Z,48288.00
2018-06-07T07:59:29.776Z,51904.00
2018-06-07T08:00:29.792Z,48288.00
2018-06-07T08:01:29.792Z,28832.00
2018-06-07T08:02:29.800Z,34688.00
2018-06-07T08:03:29.809Z,28288.00
2018-06-07T08:04:29.816Z,29280.00
2018-06-07T08:05:29.833Z,28160.00
2018-06-07T08:06:29.830Z,31776.00
2018-06-07T08:07:29.838Z,38912.00
2018-06-07T08:08:29.845Z,57760.00
2018-06-07T08:09:29.862Z,53600.00
2018-06-07T08:10:29.862Z,39200.00
2018-06-07T08:11:29.868Z,48576.00
2018-06-07T08:12:29.883Z,41344.00
2018-06-07T08:13:29.885Z,39232.00
2018-06-07T08:14:29.896Z,49600.00
2018-06-07T08:15:29.909Z,56608.00
2018-06-07T08:16:29.910Z,58080.00
2018-06-07T08:17:29.922Z,56960.00
2018-06-07T08:18:29.927Z,51392.00
2018-06-07T08:19:29.939Z,55200.00
2018-06-07T08:20:29.953Z,57152.00
2018-06-07T08:21:29.966Z,55360.00
2018-06-07T08:22:29.971Z,56256.00
2018-06-07T08:23:29.975Z,56352.00
2018-06-07T08:24:29.986Z,55584.00
2018-06-07T08:25:29.998Z,54592.00
2018-06-07T08:26:30.012Z,57440.00
2018-06-07T08:27:30.019Z,59488.00
2018-06-07T08:28:30.032Z,57536.00
2018-06-07T08:29:30.043Z,58176.00
2018-06-07T08:30:30.052Z,60032.00
2018-06-07T08:31:30.265Z,59872.00
2018-06-07T08:32:30.080Z,57152.00
2018-06-07T08:33:30.090Z,59136.00
2018-06-07T08:34:30.503Z,60736.00
2018-06-07T08:35:30.110Z,57952.00
2018-06-07T08:36:30.122Z,57024.00
2018-06-07T08:37:30.134Z,59616.00
2018-06-07T08:38:30.146Z,58656.00
2018-06-07T08:39:30.374Z,56512.00
2018-06-07T08:40:30.176Z,57472.00
2018-06-07T08:41:30.385Z,61120.00
2018-06-07T08:42:30.195Z,60992.00
2018-06-07T08:43:30.206Z,60896.00
2018-06-07T08:44:30.281Z,58304.00
2018-06-07T08:45:30.236Z,59808.00
2018-06-07T08:46:30.243Z,58624.00
2018-06-07T08:47:30.256Z,60096.00
2018-06-07T08:48:30.274Z,52096.00
2018-06-07T08:49:30.282Z,52576.00
2018-06-07T08:50:30.304Z,46368.00
2018-06-07T08:51:30.307Z,43616.00
2018-06-07T08:52:30.319Z,43232.00
2018-06-07T08:53:30.331Z,53440.00
2018-06-07T08:54:30.343Z,62016.00
2018-06-07T08:55:30.361Z,64704.00
2018-06-07T08:56:30.365Z,67808.00
2018-06-07T08:57:30.380Z,64608.00
2018-06-07T08:58:30.388Z,64608.00
2018-06-07T08:59:30.413Z,66656.00
2018-06-07T09:00:30.431Z,63616.00
2018-06-07T09:01:30.436Z,63520.00
2018-06-07T09:02:30.441Z,66944.00
2018-06-07T09:03:30.451Z,40224.00
2018-06-07T09:04:30.465Z,61664.00
2018-06-07T09:05:30.479Z,44032.00
2018-06-07T09:06:30.489Z,68064.00
2018-06-07T09:07:30.505Z,65184.00
2018-06-07T09:08:30.717Z,47520.00
2018-06-07T09:09:30.729Z,54816.00
2018-06-07T09:10:30.539Z,65600.00
2018-06-07T09:11:30.552Z,64416.00
2018-06-07T09:12:30.573Z,63488.00
2018-06-07T09:13:30.582Z,65024.00
2018-06-07T09:14:30.592Z,67680.00
2018-06-07T09:15:30.606Z,64416.00
2018-06-07T09:16:30.616Z,64576.00
2018-06-07T09:17:30.629Z,66912.00
2018-06-07T09:18:30.641Z,65696.00
2018-06-07T09:19:30.674Z,64640.00
2018-06-07T09:20:30.670Z,63296.00
2018-06-07T09:21:30.684Z,64256.00
2018-06-07T09:22:30.696Z,63648.00
2018-06-07T09:23:30.709Z,61056.00
2018-06-07T09:24:30.724Z,64768.00
2018-06-07T09:25:30.737Z,62656.00
2018-06-07T09:26:30.753Z,41952.00
2018-06-07T09:27:30.763Z,58144.00
2018-06-07T09:28:30.780Z,66368.00
2018-06-07T09:29:30.796Z,63424.00
2018-06-07T09:30:30.803Z,50176.00
2018-06-07T09:31:30.821Z,41152.00
2018-06-07T09:32:30.831Z,65760.00
2018-06-07T09:33:30.849Z,63808.00
2018-06-07T09:34:30.934Z,64064.00
2018-06-07T09:35:30.871Z,66112.00
2018-06-07T09:36:30.888Z,67008.00
2018-06-07T09:37:30.901Z,65024.00
2018-06-07T09:38:30.913Z,56064.00
2018-06-07T09:39:30.928Z,33056.00
2018-06-07T09:40:30.942Z,31328.00
2018-06-07T09:41:30.962Z,31712.00
2018-06-07T09:42:30.969Z,33088.00
2018-06-07T09:43:30.983Z,60928.00
2018-06-07T09:44:30.996Z,53504.00
2018-06-07T09:45:31.009Z,37088.00
2018-06-07T09:46:31.023Z,66848.00
2018-06-07T09:47:31.033Z,56928.00
2018-06-07T09:48:31.045Z,62976.00
2018-06-07T09:49:31.063Z,55360.00
2018-06-07T09:50:31.070Z,53440.00
2018-06-07T09:51:31.083Z,69600.00
2018-06-07T09:52:31.101Z,37760.00
2018-06-07T09:53:31.114Z,32480.00
2018-06-07T09:54:31.126Z,33792.00
2018-06-07T09:55:31.140Z,46112.00
2018-06-07T09:56:31.147Z,68896.00
2018-06-07T09:57:31.159Z,69024.00
2018-06-07T09:58:31.174Z,67264.00
2018-06-07T09:59:31.183Z,68576.00
2018-06-07T10:00:31.196Z,62432.00
2018-06-07T10:01:31.209Z,55936.00
2018-06-07T10:02:31.224Z,74496.00
2018-06-07T10:04:31.250Z,69344.00
2018-06-07T10:05:31.265Z,78272.00
2018-06-07T10:06:31.282Z,79392.00
2018-06-07T10:07:31.290Z,81280.00
2018-06-07T10:08:31.304Z,83648.00
2018-06-07T10:09:31.319Z,86048.00
2018-06-07T10:10:31.332Z,79680.00
2018-06-07T10:11:31.347Z,77632.00
2018-06-07T10:12:31.366Z,78272.00
2018-06-07T10:13:31.379Z,82816.00
2018-06-07T10:14:31.393Z,82592.00
2018-06-07T10:15:31.409Z,82848.00
2018-06-07T10:16:31.423Z,79936.00
2018-06-07T10:17:31.439Z,84064.00
2018-06-07T10:18:31.456Z,82176.00
2018-06-07T10:19:31.468Z,79200.00
2018-06-07T10:20:31.484Z,80928.00
2018-06-07T10:21:31.501Z,78784.00
2018-06-07T10:22:31.566Z,80960.00
2018-06-07T10:23:31.533Z,80320.00
2018-06-07T10:24:31.546Z,74880.00
2018-06-07T10:25:31.565Z,77536.00
2018-06-07T10:26:31.576Z,74912.00
2018-06-07T10:27:31.795Z,76800.00
2018-06-07T10:28:31.606Z,79008.00
2018-06-07T10:29:31.622Z,74336.00
2018-06-07T10:30:31.640Z,74816.00
2018-06-07T10:31:31.652Z,72704.00
2018-06-07T10:32:31.668Z,78112.00
2018-06-07T10:33:31.683Z,74336.00
2018-06-07T10:34:31.698Z,73088.00
2018-06-07T10:35:31.718Z,72736.00
2018-06-07T10:36:31.731Z,71840.00
2018-06-07T10:37:31.749Z,72896.00
2018-06-07T10:38:31.762Z,74016.00
2018-06-07T10:39:31.778Z,75776.00
2018-06-07T10:40:31.804Z,73952.00
2018-06-07T10:41:31.811Z,75904.00
2018-06-07T10:42:31.826Z,78528.00
2018-06-07T10:43:31.843Z,78208.00
2018-06-07T10:44:31.859Z,77600.00
2018-06-07T10:45:31.876Z,75680.00
2018-06-07T10:46:31.892Z,73440.00
2018-06-07T10:47:31.926Z,74400.00
2018-06-07T10:48:31.925Z,77920.00
2018-06-07T10:49:31.943Z,81216.00
2018-06-07T10:50:31.959Z,75232.00
2018-06-07T10:51:31.978Z,42464.00
2018-06-07T10:52:31.991Z,57312.00
2018-06-07T10:53:32.017Z,62080.00
2018-06-07T10:54:32.023Z,31872.00
2018-06-07T10:55:32.042Z,72928.00
2018-06-07T10:56:32.057Z,69408.00
2018-06-07T10:57:32.081Z,66336.00
2018-06-07T10:58:32.090Z,54848.00
2018-06-07T10:59:32.108Z,64672.00
2018-06-07T11:00:32.121Z,72416.00
2018-06-07T11:01:32.142Z,67936.00
2018-06-07T11:02:32.153Z,43168.00
2018-06-07T11:03:32.173Z,76544.00
2018-06-07T11:04:32.213Z,36992.00
2018-06-07T11:05:32.202Z,57760.00
2018-06-07T11:06:32.219Z,33920.00
2018-06-07T11:07:32.233Z,26176.00
2018-06-07T11:08:32.250Z,24032.00
2018-06-07T11:09:32.267Z,28032.00
2018-06-07T11:10:32.280Z,22656.00
2018-06-07T11:11:32.291Z,33792.00
2018-06-07T11:12:32.304Z,19968.00
2018-06-07T11:13:32.320Z,19456.00
2018-06-07T11:14:32.344Z,21248.00
2018-06-07T11:15:32.344Z,20704.00
2018-06-07T11:16:32.357Z,22368.00
2018-06-07T11:17:32.367Z,24704.00
2018-06-07T11:18:32.377Z,25248.00
2018-06-07T11:19:32.392Z,30912.00
2018-06-07T11:20:32.398Z,30432.00
2018-06-07T11:21:32.409Z,55936.00
2018-06-07T11:22:32.423Z,60256.00
2018-06-07T11:23:32.430Z,63808.00
2018-06-07T11:24:32.446Z,52064.00
2018-06-07T11:25:32.453Z,30720.00
2018-06-07T11:26:32.464Z,30112.00
2018-06-07T11:27:32.475Z,33664.00
2018-06-07T11:28:32.488Z,50208.00
2018-06-07T11:29:32.498Z,34048.00
2018-06-07T11:30:32.513Z,42304.00
2018-06-07T11:31:32.529Z,54400.00
2018-06-07T11:32:32.535Z,54624.00
2018-06-07T11:33:32.544Z,55872.00
2018-06-07T11:34:32.554Z,55904.00
2018-06-07T11:35:32.567Z,54528.00
2018-06-07T11:36:32.589Z,27328.00
2018-06-07T11:37:32.593Z,27008.00
2018-06-07T11:38:32.609Z,51264.00
2018-06-07T11:39:32.621Z,51968.00
2018-06-07T11:40:32.635Z,52768.00
2018-06-07T11:41:32.646Z,40736.00
2018-06-07T11:42:32.658Z,27168.00
2018-06-07T11:43:32.674Z,28544.00
2018-06-07T11:44:32.688Z,54720.00
2018-06-07T11:45:32.697Z,48608.00
2018-06-07T11:46:32.709Z,54880.00
2018-06-07T11:47:32.724Z,55520.00
2018-06-07T11:48:32.737Z,57952.00
2018-06-07T11:49:32.755Z,53792.00
2018-06-07T11:50:32.764Z,54176.00
2018-06-07T11:51:32.782Z,57120.00
2018-06-07T11:52:32.792Z,29184.00
2018-06-07T11:53:32.811Z,55584.00
2018-06-07T11:54:32.821Z,57696.00
2018-06-07T11:55:32.834Z,31712.00
2018-06-07T11:56:33.051Z,41664.00
2018-06-07T11:57:32.861Z,49856.00
2018-06-07T11:58:32.877Z,27616.00
2018-06-07T11:59:32.890Z,22976.00
2018-06-07T12:00:32.905Z,18880.00
2018-06-07T12:01:32.914Z,17088.00
2018-06-07T12:02:32.926Z,16896.00
2018-06-07T12:03:32.940Z,18208.00
2018-06-07T12:04:32.949Z,21056.00
2018-06-07T12:05:32.962Z,29664.00
2018-06-07T12:06:32.970Z,34272.00
2018-06-07T12:07:32.980Z,42752.00
2018-06-07T12:08:32.995Z,37888.00
2018-06-07T12:09:33.003Z,33600.00
2018-06-07T12:10:33.014Z,28448.00
2018-06-07T12:11:33.023Z,26976.00
2018-06-07T12:12:33.077Z,27200.00
2018-06-07T12:13:33.041Z,26496.00
2018-06-07T12:14:33.053Z,26304.00
2018-06-07T12:15:33.060Z,27168.00
2018-06-07T12:16:33.069Z,34848.00
2018-06-07T12:17:33.082Z,38400.00